Time;durP1;ratioP1;P1;durP2;ratioP2;P2;SDS_P1;SDS_P2;PMS_P1;PMS_P2;Temp;Humidity;BMP_temperature;BMP_pressure;BME280_temperature;BME280_humidity;BME280_pressure;Samples;Min_cycle;Max_cycle;Signal;HPM_P1;HPM_P2
2022/08/14 00:02:13;;;;;;;4.68;2.30;;;;;;;;;;4822122;29;20038;-51
2022/08/14 00:04:40;;;;;;;5.07;2.08;;;;;;;;;;4822775;29;20098;-53
2022/08/14 00:07:11;;;;;;;4.85;2.13;;;;;;;;;;4823510;29;20074;-47
2022/08/14 00:09:44;;;;;;;3.75;1.98;;;;;;;;;;4823559;29;20403;-53
2022/08/14 00:12:33;;;;;;;3.85;1.70;;;;;;;;;;4823632;29;20533;-50
2022/08/14 00:15:30;;;;;;;3.28;1.70;;;;;;;;;;4823509;29;20042;-51
2022/08/14 00:18:14;;;;;;;2.80;1.80;;;;;;;;;;4823470;29;20099;-51
2022/08/14 00:21:03;;;;;;;5.07;2.03;;;;;;;;;;4840816;29;20045;-50
2022/08/14 00:23:37;;;;;;;3.40;1.73;;;;;;;;;;4841151;29;20050;-50
2022/08/14 00:26:05;;;;;;;4.50;2.10;;;;;;;;;;4841913;29;20050;-53
2022/08/14 00:28:49;;;;;;;5.30;2.07;;;;;;;;;;4841375;29;20046;-47
2022/08/14 00:31:17;;;;;;;3.72;2.00;;;;;;;;;;4840109;29;20321;-47
2022/08/14 00:34:07;;;;;;;3.35;1.90;;;;;;;;;;4841263;29;20046;-51
2022/08/14 00:36:54;;;;;;;4.57;1.95;;;;;;;;;;4841686;29;20050;-47
2022/08/14 00:39:25;;;;;;;4.40;2.40;;;;;;;;;;4841883;29;20077;-49
2022/08/14 00:41:52;;;;;;;5.00;2.15;;;;;;;;;;4841416;29;20041;-52
2022/08/14 00:44:19;;;;;;;3.80;2.05;;;;;;;;;;4841384;29;20045;-51
2022/08/14 00:47:00;;;;;;;4.80;1.98;;;;;;;;;;4841393;29;20484;-49
2022/08/14 00:49:29;;;;;;;6.63;1.75;;;;;;;;;;4840981;29;20562;-50
2022/08/14 00:52:04;;;;;;;4.90;2.10;;;;;;;;;;4841190;29;20107;-53
2022/08/14 00:54:33;;;;;;;3.25;1.90;;;;;;;;;;4841191;29;20506;-52
2022/08/14 00:57:01;;;;;;;3.50;1.70;;;;;;;;;;4841068;29;20050;-49
2022/08/14 00:59:30;;;;;;;4.03;1.95;;;;;;;;;;4841550;29;20467;-45
2022/08/14 01:01:59;;;;;;;5.97;2.22;;;;;;;;;;4841311;29;20553;-46
2022/08/14 01:04:30;;;;;;;3.78;2.10;;;;;;;;;;4841486;29;20042;-50
2022/08/14 01:07:20;;;;;;;3.35;1.90;;;;;;;;;;4840880;29;20076;-52
2022/08/14 01:09:56;;;;;;;3.58;1.85;;;;;;;;;;4840960;29;20045;-50
2022/08/14 01:12:24;;;;;;;3.05;2.03;;;;;;;;;;4841079;29;20077;-45
2022/08/14 01:15:00;;;;;;;3.47;1.70;;;;;;;;;;4841245;29;20046;-53
2022/08/14 01:23:09;;;;;;;3.70;2.22;;;;;;;;;;4822608;29;20051;-45
2022/08/14 01:25:48;;;;;;;3.35;1.60;;;;;;;;;;4822838;29;20091;-49
2022/08/14 01:28:19;;;;;;;3.95;2.38;;;;;;;;;;4822777;29;20042;-51
2022/08/14 01:31:13;;;;;;;3.75;2.47;;;;;;;;;;4822426;29;20107;-52
2022/08/14 01:33:45;;;;;;;3.28;2.25;;;;;;;;;;4822795;29;20049;-47
2022/08/14 01:36:36;;;;;;;7.00;2.22;;;;;;;;;;4822544;29;20043;-46
2022/08/14 01:39:11;;;;;;;5.35;1.98;;;;;;;;;;4822593;29;20070;-52
2022/08/14 01:41:42;;;;;;;5.22;1.90;;;;;;;;;;4822743;29;20054;-51
2022/08/14 01:44:14;;;;;;;3.72;1.83;;;;;;;;;;4822688;29;20680;-50
2022/08/14 01:47:09;;;;;;;3.75;2.33;;;;;;;;;;4822372;29;20113;-52
2022/08/14 01:49:39;;;;;;;4.18;2.13;;;;;;;;;;4822302;29;20049;-50
2022/08/14 01:52:30;;;;;;;3.97;2.20;;;;;;;;;;4822792;29;20125;-51
2022/08/14 01:55:18;;;;;;;3.13;1.88;;;;;;;;;;4822377;29;20046;-51
2022/08/14 01:57:45;;;;;;;6.40;2.03;;;;;;;;;;4822214;29;20043;-49
2022/08/14 02:00:28;;;;;;;8.18;2.53;;;;;;;;;;4824693;29;20515;-51
2022/08/14 02:03:02;;;;;;;5.55;2.10;;;;;;;;;;4825544;29;20039;-46
2022/08/14 02:05:34;;;;;;;3.60;2.50;;;;;;;;;;4825726;29;20444;-47
2022/08/14 02:08:06;;;;;;;3.28;2.10;;;;;;;;;;4825486;29;20102;-48
2022/08/14 02:10:40;;;;;;;3.10;1.98;;;;;;;;;;4825483;29;20073;-47
2022/08/14 02:13:15;;;;;;;5.75;1.98;;;;;;;;;;4825405;29;20103;-51
2022/08/14 02:15:44;;;;;;;3.90;2.20;;;;;;;;;;4825404;29;20411;-47
2022/08/14 02:18:16;;;;;;;4.35;2.10;;;;;;;;;;4824963;29;20129;-47
2022/08/14 02:20:44;;;;;;;3.88;2.05;;;;;;;;;;4840735;29;20046;-47
2022/08/14 02:23:13;;;;;;;4.28;2.03;;;;;;;;;;4843281;29;20125;-47
2022/08/14 02:25:43;;;;;;;5.43;2.17;;;;;;;;;;4843864;29;20057;-47
2022/08/14 02:28:20;;;;;;;5.93;2.40;;;;;;;;;;4843577;29;20049;-46
2022/08/14 02:31:08;;;;;;;4.05;2.28;;;;;;;;;;4843090;29;20448;-49
2022/08/14 02:33:36;;;;;;;4.22;2.72;;;;;;;;;;4843522;29;20489;-54
2022/08/14 02:36:05;;;;;;;4.85;2.67;;;;;;;;;;4843323;29;20081;-51
2022/08/14 02:38:53;;;;;;;3.80;2.15;;;;;;;;;;4843456;29;20038;-52
2022/08/14 02:41:20;;;;;;;3.38;1.98;;;;;;;;;;4843284;29;20056;-48
2022/08/14 02:43:54;;;;;;;4.18;2.38;;;;;;;;;;4843522;29;20098;-50
2022/08/14 02:46:27;;;;;;;6.40;2.30;;;;;;;;;;4843500;29;20054;-46
2022/08/14 02:48:59;;;;;;;6.10;2.50;;;;;;;;;;4843391;29;20346;-49
2022/08/14 02:51:35;;;;;;;6.80;2.63;;;;;;;;;;4842730;29;20054;-52
2022/08/14 02:54:05;;;;;;;4.85;2.50;;;;;;;;;;4843204;29;20052;-49
2022/08/14 02:56:37;;;;;;;5.28;2.25;;;;;;;;;;4843007;29;20114;-51
2022/08/14 02:59:28;;;;;;;3.90;2.30;;;;;;;;;;4842936;29;20072;-48
2022/08/14 03:02:01;;;;;;;4.32;2.45;;;;;;;;;;4842853;29;20078;-50
2022/08/14 03:04:29;;;;;;;4.10;2.10;;;;;;;;;;4842983;29;20037;-47
2022/08/14 03:06:57;;;;;;;4.03;2.00;;;;;;;;;;4843108;29;20581;-45
2022/08/14 03:09:38;;;;;;;3.90;1.98;;;;;;;;;;4842904;29;20094;-45
2022/08/14 03:12:25;;;;;;;4.43;2.00;;;;;;;;;;4841421;29;20049;-45
2022/08/14 03:15:08;;;;;;;4.18;2.38;;;;;;;;;;4841516;29;20140;-42
2022/08/14 03:17:42;;;;;;;;;;;;;;;;;;4843167;29;20041;-47
2022/08/14 03:20:29;;;;;;;5.70;2.35;;;;;;;;;;4829991;29;20300;-49
2022/08/14 03:23:00;;;;;;;2.72;1.90;;;;;;;;;;4824291;29;20050;-49
2022/08/14 03:25:32;;;;;;;4.43;2.30;;;;;;;;;;4822800;29;20043;-48
2022/08/14 03:28:06;;;;;;;4.93;2.50;;;;;;;;;;4836781;29;20121;-44
2022/08/14 03:30:34;;;;;;;3.88;2.20;;;;;;;;;;4823287;29;20069;-48
2022/08/14 03:33:12;;;;;;;4.10;2.42;;;;;;;;;;4823215;29;20046;-47
2022/08/14 03:35:41;;;;;;;;;;;;;;;;;;4823813;29;20410;-47
2022/08/14 03:38:26;;;;;;;5.20;2.13;;;;;;;;;;4823550;29;19977;-45
2022/08/14 03:41:22;;;;;;;4.35;2.22;;;;;;;;;;4823108;29;20475;-50
2022/08/14 03:43:57;;;;;;;6.85;2.30;;;;;;;;;;4823222;29;20050;-44
2022/08/14 03:46:45;;;;;;;4.13;2.13;;;;;;;;;;4822998;29;20043;-49
2022/08/14 03:49:23;;;;;;;6.07;2.30;;;;;;;;;;4835948;29;20047;-49
2022/08/14 03:52:03;;;;;;;3.90;2.30;;;;;;;;;;4822770;29;20042;-44
2022/08/14 03:54:50;;;;;;;3.00;1.90;;;;;;;;;;4822993;29;20045;-47
2022/08/14 03:57:19;;;;;;;3.92;2.00;;;;;;;;;;4822932;29;20081;-45
2022/08/14 03:59:49;;;;;;;3.03;1.90;;;;;;;;;;4822920;29;20078;-48
2022/08/14 04:02:17;;;;;;;5.32;2.15;;;;;;;;;;4822771;29;20046;-45
2022/08/14 04:05:05;;;;;;;5.68;1.73;;;;;;;;;;4822759;29;20043;-45
2022/08/14 04:07:41;;;;;;;4.03;2.10;;;;;;;;;;4822840;29;20049;-50
2022/08/14 04:10:28;;;;;;;3.95;2.25;;;;;;;;;;4822519;29;20042;-46
2022/08/14 04:13:03;;;;;;;3.92;1.83;;;;;;;;;;4822245;29;20092;-43
2022/08/14 04:15:36;;;;;;;4.90;2.20;;;;;;;;;;4822803;29;20084;-45
2022/08/14 04:18:23;;;;;;;5.30;2.57;;;;;;;;;;4822785;29;20053;-47
2022/08/14 04:20:51;;;;;;;4.10;2.00;;;;;;;;;;4838497;29;20328;-47
2022/08/14 04:23:23;;;;;;;4.22;2.33;;;;;;;;;;4840188;29;20526;-47
2022/08/14 04:26:01;;;;;;;5.15;2.40;;;;;;;;;;4841627;29;20478;-44
2022/08/14 04:28:29;;;;;;;4.65;2.40;;;;;;;;;;4841447;29;20058;-43
2022/08/14 04:31:21;;;;;;;5.95;2.63;;;;;;;;;;4841151;29;20067;-49
2022/08/14 04:34:08;;;;;;;4.65;2.10;;;;;;;;;;4841350;29;20494;-50
2022/08/14 04:45:22;;;;;;;3.95;2.50;;;;;;;;;;4841292;29;20046;-48
2022/08/14 04:50:42;;;;;;;4.45;2.50;;;;;;;;;;4841206;29;20079;-50
2022/08/14 04:53:23;;;;;;;3.40;2.00;;;;;;;;;;4839798;29;20054;-46
2022/08/14 04:56:01;;;;;;;4.00;2.33;;;;;;;;;;4841107;29;20054;-48
2022/08/14 04:58:30;;;;;;;5.07;2.50;;;;;;;;;;4841436;29;20137;-46
2022/08/14 05:01:01;;;;;;;4.35;2.35;;;;;;;;;;4840922;29;20042;-47
2022/08/14 05:03:32;;;;;;;3.58;2.17;;;;;;;;;;4841026;29;20038;-47
2022/08/14 05:06:02;;;;;;;4.40;2.30;;;;;;;;;;4840923;29;20077;-44
2022/08/14 05:08:33;;;;;;;6.68;2.70;;;;;;;;;;4840823;29;20045;-46
2022/08/14 05:11:21;;;;;;;4.07;2.80;;;;;;;;;;4840464;29;20057;-49
2022/08/14 05:13:50;;;;;;;6.90;2.90;;;;;;;;;;4840733;29;20038;-48
2022/08/14 05:16:37;;;;;;;4.28;2.72;;;;;;;;;;4840670;29;20448;-51
2022/08/14 05:19:09;;;;;;;3.53;2.20;;;;;;;;;;4837536;29;20399;-45
2022/08/14 05:21:57;;;;;;;4.93;2.60;;;;;;;;;;4822433;29;20038;-46
2022/08/14 05:24:42;;;;;;;3.58;2.30;;;;;;;;;;4822619;29;20055;-48
2022/08/14 05:27:09;;;;;;;4.50;2.50;;;;;;;;;;4822608;29;20073;-47
2022/08/14 05:29:36;;;;;;;3.97;2.05;;;;;;;;;;4822651;29;20042;-46
2022/08/14 05:32:07;;;;;;;3.60;2.38;;;;;;;;;;4822176;29;20076;-50
2022/08/14 05:34:35;;;;;;;2.95;2.03;;;;;;;;;;4823402;29;20069;-43
2022/08/14 05:37:02;;;;;;;6.47;2.53;;;;;;;;;;4826078;29;20526;-46
2022/08/14 05:39:32;;;;;;;4.63;3.05;;;;;;;;;;4825692;29;20054;-48
2022/08/14 05:42:06;;;;;;;6.32;2.33;;;;;;;;;;4825827;29;20099;-47
2022/08/14 05:44:47;;;;;;;4.13;2.58;;;;;;;;;;4825921;29;20512;-46
2022/08/14 05:47:15;;;;;;;4.88;2.50;;;;;;;;;;4825829;29;20395;-44
2022/08/14 05:49:47;;;;;;;5.20;2.63;;;;;;;;;;4825817;29;20046;-48
2022/08/14 05:52:14;;;;;;;4.65;2.22;;;;;;;;;;4825400;29;20039;-45
2022/08/14 05:54:44;;;;;;;4.30;2.28;;;;;;;;;;4825293;29;20038;-45
2022/08/14 05:57:11;;;;;;;6.25;2.30;;;;;;;;;;4825642;29;20054;-44
2022/08/14 05:59:38;;;;;;;6.35;2.70;;;;;;;;;;4825412;29;20077;-46
2022/08/14 06:02:07;;;;;;;2.97;2.08;;;;;;;;;;4825981;29;20503;-45
2022/08/14 06:04:37;;;;;;;4.38;2.28;;;;;;;;;;4825669;29;20477;-44
2022/08/14 06:07:05;;;;;;;4.05;2.28;;;;;;;;;;4825533;29;20068;-44
2022/08/14 06:09:35;;;;;;;3.38;2.00;;;;;;;;;;4825580;29;20103;-49
2022/08/14 06:12:11;;;;;;;4.03;2.60;;;;;;;;;;4825202;29;20049;-52
2022/08/14 06:14:58;;;;;;;3.05;2.13;;;;;;;;;;4825478;29;20049;-50
2022/08/14 06:17:26;;;;;;;3.42;1.85;;;;;;;;;;4809337;29;20577;-47
2022/08/14 06:20:07;;;;;;;3.20;1.90;;;;;;;;;;4835095;29;20045;-49
2022/08/14 06:22:36;;;;;;;4.20;1.90;;;;;;;;;;4843678;29;20049;-48
2022/08/14 06:25:03;;;;;;;4.90;1.80;;;;;;;;;;4843477;29;20045;-44
2022/08/14 06:27:39;;;;;;;4.82;1.90;;;;;;;;;;4843714;29;20102;-46
2022/08/14 06:30:10;;;;;;;3.92;2.00;;;;;;;;;;4843304;29;20084;-50
2022/08/14 06:32:44;;;;;;;3.20;1.73;;;;;;;;;;4843564;29;20054;-44
2022/08/14 06:35:13;;;;;;;3.47;2.10;;;;;;;;;;4843519;29;20054;-47
2022/08/14 06:37:47;;;;;;;2.70;1.52;;;;;;;;;;4843505;29;20074;-45
2022/08/14 06:40:18;;;;;;;4.97;1.40;;;;;;;;;;4843442;29;20054;-46
2022/08/14 06:43:05;;;;;;;3.58;1.58;;;;;;;;;;4838358;29;20043;-43
2022/08/14 06:45:35;;;;;;;3.53;1.58;;;;;;;;;;4823577;29;20120;-46
2022/08/14 06:48:22;;;;;;;2.38;1.27;;;;;;;;;;4824959;29;20483;-45
2022/08/14 06:50:52;;;;;;;1.77;1.33;;;;;;;;;;4824663;29;20157;-44
2022/08/14 06:53:20;;;;;;;3.30;1.65;;;;;;;;;;4824428;29;20058;-45
2022/08/14 06:55:48;;;;;;;2.88;1.52;;;;;;;;;;4824950;29;20117;-51
2022/08/14 06:58:24;;;;;;;4.90;1.70;;;;;;;;;;4825013;29;20432;-45
2022/08/14 07:06:53;;;;;;;3.63;1.80;;;;;;;;;;4824555;29;20596;-52
2022/08/14 07:09:26;;;;;;;2.90;1.58;;;;;;;;;;4824708;29;20548;-43
2022/08/14 07:12:14;;;;;;;3.03;1.50;;;;;;;;;;4824454;29;20503;-46
2022/08/14 07:15:04;;;;;;;2.83;1.50;;;;;;;;;;4824317;29;20051;-46
2022/08/14 07:17:32;;;;;;;4.28;1.40;;;;;;;;;;4824387;29;20523;-47
2022/08/14 07:20:00;;;;;;;2.63;1.48;;;;;;;;;;4824508;29;20034;-43
2022/08/14 07:22:27;;;;;;;2.45;1.35;;;;;;;;;;4823330;29;20074;-47
2022/08/14 07:25:15;;;;;;;3.53;1.40;;;;;;;;;;4824374;29;20461;-46
2022/08/14 07:27:42;;;;;;;2.55;1.40;;;;;;;;;;4824048;29;20159;-48
2022/08/14 07:30:10;;;;;;;2.65;1.58;;;;;;;;;;4824254;29;20053;-48
2022/08/14 07:32:58;;;;;;;2.50;1.60;;;;;;;;;;4823497;29;20050;-46
2022/08/14 07:35:26;;;;;;;2.58;1.63;;;;;;;;;;4823834;29;20047;-48
2022/08/14 07:38:15;;;;;;;;;;;;;;;;;;4824630;29;20491;-47
2022/08/14 07:40:43;;;;;;;2.92;1.92;;;;;;;;;;4823768;29;19924;-51
2022/08/14 07:43:12;;;;;;;3.88;1.50;;;;;;;;;;4823797;29;20048;-50
2022/08/14 07:45:41;;;;;;;2.70;1.60;;;;;;;;;;4824226;29;20081;-45
2022/08/14 07:48:09;;;;;;;3.60;1.73;;;;;;;;;;4823895;29;20077;-46
2022/08/14 07:50:42;;;;;;;;;;;;;;;;;;4824137;29;20064;-47
2022/08/14 07:53:13;;;;;;;5.05;1.88;;;;;;;;;;4823853;29;19981;-51
2022/08/14 07:55:41;;;;;;;4.35;1.70;;;;;;;;;;4823649;29;20168;-49
2022/08/14 07:58:09;;;;;;;4.18;1.85;;;;;;;;;;4823351;29;20518;-50
2022/08/14 08:00:57;;;;;;;4.40;1.90;;;;;;;;;;4824029;29;20046;-45
2022/08/14 08:03:32;;;;;;;2.88;1.70;;;;;;;;;;4823958;29;20158;-53
2022/08/14 08:06:01;;;;;;;3.33;1.50;;;;;;;;;;4823998;29;20068;-45
2022/08/14 08:08:36;;;;;;;4.63;1.58;;;;;;;;;;4823625;29;20097;-46
2022/08/14 08:11:11;;;;;;;3.55;1.65;;;;;;;;;;4823148;29;20050;-45
2022/08/14 08:13:41;;;;;;;2.40;1.30;;;;;;;;;;4823575;29;20038;-45
2022/08/14 08:16:22;;;;;;;3.05;1.60;;;;;;;;;;4823112;29;20602;-45
2022/08/14 08:18:49;;;;;;;2.20;1.70;;;;;;;;;;4824150;29;20129;-45
2022/08/14 08:21:22;;;;;;;3.45;1.60;;;;;;;;;;4841317;29;20061;-49
2022/08/14 08:23:53;;;;;;;3.53;1.40;;;;;;;;;;4840307;29;20060;-43
2022/08/14 08:26:27;;;;;;;3.45;1.50;;;;;;;;;;4841752;29;20144;-47
2022/08/14 08:28:56;;;;;;;2.65;1.40;;;;;;;;;;4841269;29;20049;-44
2022/08/14 08:31:25;;;;;;;2.90;1.58;;;;;;;;;;4840883;29;20464;-50
2022/08/14 08:34:05;;;;;;;4.70;1.88;;;;;;;;;;4841565;29;20098;-49
2022/08/14 08:36:40;;;;;;;4.55;1.55;;;;;;;;;;4841394;29;20052;-46
2022/08/14 08:39:12;;;;;;;2.25;1.40;;;;;;;;;;4841076;29;20709;-45
2022/08/14 08:41:49;;;;;;;2.45;1.75;;;;;;;;;;4841104;29;20057;-43
2022/08/14 08:44:20;;;;;;;2.67;1.50;;;;;;;;;;4840986;29;20125;-44
2022/08/14 08:47:04;;;;;;;4.25;1.38;;;;;;;;;;4824498;29;20410;-50
2022/08/14 08:49:43;;;;;;;146.65;82.25;;;;;;;;;;4841070;29;20050;-45
2022/08/14 08:52:27;;;;;;;31.33;22.48;;;;;;;;;;4841174;29;20042;-42
2022/08/14 08:54:59;;;;;;;8.60;5.10;;;;;;;;;;4841251;29;20038;-43
2022/08/14 08:57:35;;;;;;;;;;;;;;;;;;4841583;29;20050;-43
2022/08/14 09:00:13;;;;;;;2.75;1.40;;;;;;;;;;4841249;29;19975;-44
2022/08/14 09:03:02;;;;;;;3.33;1.70;;;;;;;;;;4828458;29;20050;-44
2022/08/14 09:05:31;;;;;;;4.82;1.85;;;;;;;;;;4821671;29;20053;-48
2022/08/14 09:08:17;;;;;;;3.88;1.65;;;;;;;;;;4823094;29;20062;-47
2022/08/14 09:11:00;;;;;;;2.70;1.40;;;;;;;;;;4826443;29;20049;-47
2022/08/14 09:13:28;;;;;;;3.90;1.77;;;;;;;;;;4826743;29;20519;-46
2022/08/14 09:15:59;;;;;;;4.30;1.70;;;;;;;;;;4826816;29;20050;-45
2022/08/14 09:18:45;;;;;;;2.45;1.50;;;;;;;;;;4826391;29;20570;-46
2022/08/14 09:21:13;;;;;;;2.45;1.60;;;;;;;;;;4844530;29;20050;-47
2022/08/14 09:23:43;;;;;;;2.50;1.45;;;;;;;;;;4844469;29;20111;-47
2022/08/14 09:26:31;;;;;;;3.13;1.67;;;;;;;;;;4844998;29;20045;-47
2022/08/14 09:28:59;;;;;;;2.45;1.40;;;;;;;;;;4844483;29;20046;-46
2022/08/14 09:31:29;;;;;;;2.47;1.50;;;;;;;;;;4844436;29;20050;-44
2022/08/14 09:34:43;;;;;;;2.33;1.50;;;;;;;;;;4844217;29;20078;-43
2022/08/14 09:37:52;;;;;;;5.05;1.50;;;;;;;;;;4844490;29;20574;-43
2022/08/14 09:40:43;;;;;;;2.78;1.60;;;;;;;;;;4844159;29;20050;-41
2022/08/14 09:43:20;;;;;;;3.22;1.48;;;;;;;;;;4844075;29;20061;-48
2022/08/14 09:45:49;;;;;;;2.92;1.70;;;;;;;;;;4836730;29;20415;-51
2022/08/14 09:48:24;;;;;;;82.57;48.22;;;;;;;;;;4825778;29;20102;-42
2022/08/14 09:50:59;;;;;;;8.40;5.20;;;;;;;;;;4825241;29;20050;-54
2022/08/14 09:53:42;;;;;;;4.35;2.00;;;;;;;;;;4825687;29;20100;-46
2022/08/14 09:56:30;;;;;;;3.88;1.42;;;;;;;;;;4825655;29;20046;-43
2022/08/14 09:59:13;;;;;;;4.10;1.67;;;;;;;;;;4825816;29;20049;-44
2022/08/14 10:01:42;;;;;;;3.85;1.50;;;;;;;;;;4825318;29;20050;-44
2022/08/14 10:04:23;;;;;;;2.20;1.25;;;;;;;;;;4825509;29;20047;-44
2022/08/14 10:07:04;;;;;;;2.75;1.65;;;;;;;;;;4825321;29;20070;-43
2022/08/14 10:09:32;;;;;;;3.25;1.67;;;;;;;;;;4825339;29;20042;-43
2022/08/14 10:12:01;;;;;;;5.60;1.52;;;;;;;;;;4824148;29;20584;-45
2022/08/14 10:14:33;;;;;;;2.22;1.50;;;;;;;;;;4825330;29;20514;-45
2022/08/14 10:17:05;;;;;;;3.05;1.33;;;;;;;;;;4825205;29;20054;-44
2022/08/14 10:19:45;;;;;;;1.92;1.25;;;;;;;;;;4831592;29;20045;-43
2022/08/14 10:22:13;;;;;;;3.30;1.65;;;;;;;;;;4843427;29;20038;-44
2022/08/14 10:25:13;;;;;;;2.45;1.60;;;;;;;;;;4807259;29;20047;-44
2022/08/14 10:27:45;;;;;;;3.67;1.42;;;;;;;;;;4820080;29;20074;-42
2022/08/14 10:30:16;;;;;;;2.95;1.50;;;;;;;;;;4820810;29;20058;-43
2022/08/14 10:32:53;;;;;;;2.72;1.63;;;;;;;;;;4807187;29;20130;-44
2022/08/14 10:35:24;;;;;;;4.15;1.98;;;;;;;;;;4807027;29;20047;-43
2022/08/14 10:38:01;;;;;;;4.70;1.48;;;;;;;;;;4807047;29;20051;-43
2022/08/14 10:40:33;;;;;;;3.72;1.65;;;;;;;;;;4820487;29;20503;-43
2022/08/14 10:43:24;;;;;;;2.03;1.33;;;;;;;;;;4806987;29;20075;-46
2022/08/14 10:46:02;;;;;;;4.82;2.65;;;;;;;;;;4807142;29;20081;-43
2022/08/14 10:49:01;;;;;;;4.43;1.33;;;;;;;;;;4806798;29;20063;-45
2022/08/14 10:51:33;;;;;;;2.50;1.38;;;;;;;;;;4806979;29;20051;-43
2022/08/14 10:54:07;;;;;;;3.25;1.50;;;;;;;;;;4807069;29;20047;-43
2022/08/14 10:56:56;;;;;;;2.50;1.33;;;;;;;;;;4806617;29;20055;-43
2022/08/14 10:59:23;;;;;;;5.15;1.48;;;;;;;;;;4794234;29;20051;-44
2022/08/14 11:02:02;;;;;;;3.75;1.52;;;;;;;;;;4788483;29;20100;-44
2022/08/14 11:04:29;;;;;;;2.30;1.23;;;;;;;;;;4788874;29;20543;-44
2022/08/14 11:06:58;;;;;;;2.78;1.30;;;;;;;;;;4802512;29;20087;-44
2022/08/14 11:09:25;;;;;;;2.20;1.48;;;;;;;;;;4787813;29;20112;-44
2022/08/14 11:11:58;;;;;;;2.80;1.30;;;;;;;;;;4786392;29;20051;-43
2022/08/14 11:15:00;;;;;;;2.63;1.40;;;;;;;;;;4788244;29;20046;-43
2022/08/14 11:17:34;;;;;;;2.05;1.30;;;;;;;;;;4788204;29;20047;-43
2022/08/14 11:20:05;;;;;;;2.75;1.23;;;;;;;;;;4788036;29;20055;-43
2022/08/14 11:22:41;;;;;;;3.15;1.42;;;;;;;;;;4790661;29;20481;-43
2022/08/14 11:25:28;;;;;;;2.38;1.23;;;;;;;;;;4824354;29;20054;-43
2022/08/14 11:28:21;;;;;;;3.83;1.60;;;;;;;;;;4824158;29;20114;-43
2022/08/14 11:31:10;;;;;;;3.27;1.70;;;;;;;;;;4824152;29;20046;-43
2022/08/14 11:33:38;;;;;;;3.42;1.40;;;;;;;;;;4823404;29;20049;-43
2022/08/14 11:36:08;;;;;;;4.55;1.50;;;;;;;;;;4824389;29;20407;-45
2022/08/14 11:38:45;;;;;;;4.43;1.50;;;;;;;;;;4824046;29;20050;-44
2022/08/14 11:41:15;;;;;;;5.50;1.58;;;;;;;;;;4823931;29;20396;-43
2022/08/14 11:43:49;;;;;;;2.72;1.38;;;;;;;;;;4824140;29;20106;-43
2022/08/14 11:46:25;;;;;;;2.03;1.38;;;;;;;;;;4823809;29;20138;-44
2022/08/14 11:49:04;;;;;;;4.35;1.40;;;;;;;;;;4823241;29;20484;-48
2022/08/14 11:51:33;;;;;;;3.42;1.50;;;;;;;;;;4824106;29;20053;-45
2022/08/14 11:54:05;;;;;;;2.33;1.50;;;;;;;;;;4823659;29;20107;-43
2022/08/14 11:56:36;;;;;;;2.40;1.33;;;;;;;;;;4824143;29;20149;-46
2022/08/14 11:59:05;;;;;;;2.13;1.20;;;;;;;;;;4823934;29;20090;-45
2022/08/14 12:01:37;;;;;;;4.20;1.13;;;;;;;;;;4823773;29;20038;-43
2022/08/14 12:04:13;;;;;;;2.67;1.33;;;;;;;;;;4823946;29;20551;-43
2022/08/14 12:06:59;;;;;;;3.45;1.25;;;;;;;;;;4824026;29;20039;-43
2022/08/14 12:09:35;;;;;;;2.40;1.38;;;;;;;;;;4824120;29;20081;-46
2022/08/14 12:12:17;;;;;;;2.45;1.30;;;;;;;;;;4823279;29;20078;-45
2022/08/14 12:15:05;;;;;;;3.45;1.60;;;;;;;;;;4823023;29;20046;-44
2022/08/14 12:17:50;;;;;;;4.28;1.52;;;;;;;;;;4823476;29;20039;-44
2022/08/14 12:20:40;;;;;;;4.07;1.52;;;;;;;;;;4835585;29;20049;-52
2022/08/14 12:23:25;;;;;;;3.47;1.30;;;;;;;;;;4841326;29;20507;-43
2022/08/14 12:26:05;;;;;;;2.78;1.42;;;;;;;;;;4841278;29;20132;-45
2022/08/14 12:29:10;;;;;;;3.22;1.23;;;;;;;;;;4841305;29;20050;-43
2022/08/14 12:31:49;;;;;;;2.50;1.40;;;;;;;;;;4841448;29;20042;-45
2022/08/14 12:34:19;;;;;;;4.78;1.45;;;;;;;;;;4841633;29;20077;-43
2022/08/14 12:37:02;;;;;;;4.13;1.42;;;;;;;;;;4824940;29;20049;-43
2022/08/14 12:39:32;;;;;;;3.50;1.50;;;;;;;;;;4841385;29;20124;-43
2022/08/14 12:42:08;;;;;;;2.70;1.40;;;;;;;;;;4841260;29;20149;-43
2022/08/14 12:44:58;;;;;;;4.90;1.60;;;;;;;;;;4841059;29;20050;-44
2022/08/14 12:47:30;;;;;;;1.92;1.40;;;;;;;;;;4841368;29;20046;-43
2022/08/14 12:49:58;;;;;;;1.85;1.45;;;;;;;;;;4840959;29;20066;-43
2022/08/14 12:52:41;;;;;;;2.22;1.27;;;;;;;;;;4841593;29;20044;-45
2022/08/14 12:55:34;;;;;;;2.85;1.50;;;;;;;;;;4841440;29;20046;-44
2022/08/14 12:58:26;;;;;;;2.67;1.60;;;;;;;;;;4841339;29;20491;-43
2022/08/14 13:01:35;;;;;;;3.07;1.63;;;;;;;;;;4841295;29;20053;-43
2022/08/14 13:04:23;;;;;;;1.92;1.42;;;;;;;;;;4841120;29;20503;-49
2022/08/14 13:06:53;;;;;;;3.28;1.55;;;;;;;;;;4841211;29;20081;-44
2022/08/14 13:09:26;;;;;;;2.08;1.55;;;;;;;;;;4840607;29;20070;-43
2022/08/14 13:12:04;;;;;;;3.10;1.20;;;;;;;;;;4840949;29;20046;-46
2022/08/14 13:14:55;;;;;;;2.65;1.60;;;;;;;;;;4841092;29;20106;-50
2022/08/14 13:17:24;;;;;;;2.65;1.50;;;;;;;;;;4840718;29;20050;-47
2022/08/14 13:19:58;;;;;;;3.85;1.27;;;;;;;;;;4832176;29;20061;-42
2022/08/14 13:22:26;;;;;;;3.25;1.33;;;;;;;;;;4822815;29;20073;-47
2022/08/14 13:25:01;;;;;;;2.90;1.60;;;;;;;;;;4821571;29;20497;-50
2022/08/14 13:27:35;;;;;;;5.03;1.73;;;;;;;;;;4823287;29;20066;-43
2022/08/14 13:30:09;;;;;;;2.85;1.55;;;;;;;;;;4822723;29;20051;-43
2022/08/14 13:32:51;;;;;;;2.75;1.48;;;;;;;;;;4822467;29;20053;-44
2022/08/14 13:35:19;;;;;;;3.90;1.35;;;;;;;;;;4822636;29;20515;-43
2022/08/14 13:37:50;;;;;;;3.40;1.25;;;;;;;;;;4822584;29;20050;-45
2022/08/14 13:40:21;;;;;;;2.53;1.50;;;;;;;;;;4822825;29;20415;-50
2022/08/14 13:42:54;;;;;;;2.47;1.55;;;;;;;;;;4822474;29;20647;-45
2022/08/14 13:45:25;;;;;;;3.72;1.40;;;;;;;;;;4822436;29;20046;-45
2022/08/14 13:48:14;;;;;;;3.78;1.42;;;;;;;;;;4821844;29;20410;-43
2022/08/14 13:51:00;;;;;;;3.60;1.90;;;;;;;;;;4822605;29;20103;-43
2022/08/14 13:53:36;;;;;;;2.63;1.63;;;;;;;;;;4822559;29;20042;-45
2022/08/14 13:56:05;;;;;;;4.78;1.70;;;;;;;;;;4823546;29;20069;-44
2022/08/14 13:58:42;;;;;;;2.53;1.48;;;;;;;;;;4825707;29;20411;-44
2022/08/14 14:01:16;;;;;;;3.28;1.85;;;;;;;;;;4825624;29;20103;-45
2022/08/14 14:03:48;;;;;;;2.30;1.40;;;;;;;;;;4825659;29;20042;-43
2022/08/14 14:06:22;;;;;;;3.08;1.65;;;;;;;;;;4825603;29;20058;-43
2022/08/14 14:08:53;;;;;;;4.63;1.80;;;;;;;;;;4825420;29;20078;-44
2022/08/14 14:11:25;;;;;;;5.43;1.60;;;;;;;;;;4825382;29;20069;-43
2022/08/14 14:13:59;;;;;;;4.22;1.65;;;;;;;;;;4825675;29;20065;-44
2022/08/14 14:16:26;;;;;;;2.67;1.67;;;;;;;;;;4825424;29;20377;-44
2022/08/14 14:19:01;;;;;;;2.50;1.50;;;;;;;;;;4827010;29;20045;-43
2022/08/14 14:21:37;;;;;;;2.85;1.45;;;;;;;;;;4843023;29;20106;-44
2022/08/14 14:24:07;;;;;;;4.35;1.70;;;;;;;;;;4843673;29;20062;-43
2022/08/14 14:26:46;;;;;;;2.38;1.40;;;;;;;;;;4843665;29;20038;-43
2022/08/14 14:29:19;;;;;;;3.38;1.95;;;;;;;;;;4842050;29;20471;-52
2022/08/14 14:31:52;;;;;;;3.42;1.70;;;;;;;;;;4844171;29;20057;-43
2022/08/14 14:34:24;;;;;;;4.45;1.65;;;;;;;;;;4843549;29;20042;-43
2022/08/14 14:37:03;;;;;;;2.47;1.73;;;;;;;;;;4843658;29;20057;-43
2022/08/14 14:39:33;;;;;;;2.15;1.40;;;;;;;;;;4843614;29;20058;-45
2022/08/14 14:42:05;;;;;;;2.55;1.90;;;;;;;;;;4843065;29;20041;-42
2022/08/14 14:44:42;;;;;;;34.33;20.40;;;;;;;;;;4842961;29;20042;-43
2022/08/14 14:47:15;;;;;;;5.28;2.30;;;;;;;;;;4843440;29;20046;-46
2022/08/14 14:49:44;;;;;;;3.67;1.58;;;;;;;;;;4843144;29;20041;-45
2022/08/14 14:52:22;;;;;;;4.13;1.65;;;;;;;;;;4843361;29;20058;-44
2022/08/14 14:55:05;;;;;;;2.92;1.60;;;;;;;;;;4843289;29;20057;-44
2022/08/14 14:57:35;;;;;;;3.42;1.85;;;;;;;;;;4842235;29;20046;-43
2022/08/14 15:00:07;;;;;;;2.90;1.80;;;;;;;;;;4842987;29;20054;-44
2022/08/14 15:02:44;;;;;;;2.97;1.63;;;;;;;;;;4843322;29;20125;-43
2022/08/14 15:05:16;;;;;;;2.83;1.40;;;;;;;;;;4843928;29;20124;-43
2022/08/14 15:07:48;;;;;;;3.63;2.03;;;;;;;;;;4842854;29;20578;-45
2022/08/14 15:10:18;;;;;;;2.65;1.70;;;;;;;;;;4841934;29;20054;-44
2022/08/14 15:12:57;;;;;;;2.40;1.40;;;;;;;;;;4843102;29;20049;-46
2022/08/14 15:15:26;;;;;;;5.88;1.80;;;;;;;;;;4842489;29;20050;-45
2022/08/14 15:17:53;;;;;;;2.30;1.50;;;;;;;;;;4842575;29;20582;-45
2022/08/14 15:20:21;;;;;;;5.75;1.98;;;;;;;;;;4830180;29;20141;-44
2022/08/14 15:22:59;;;;;;;2.20;1.63;;;;;;;;;;4824474;29;20127;-43
2022/08/14 15:25:40;;;;;;;2.70;1.55;;;;;;;;;;4824494;29;20046;-44
2022/08/14 15:28:11;;;;;;;4.53;1.58;;;;;;;;;;4824181;29;20560;-46
2022/08/14 15:30:48;;;;;;;4.05;1.85;;;;;;;;;;4824197;29;20078;-44
2022/08/14 15:34:09;;;;;;;3.13;1.60;;;;;;;;;;4824347;29;20077;-43
2022/08/14 15:36:27;;;;;;;2.03;1.40;;;;;;;;;;4824303;29;20051;-44
2022/08/14 15:38:57;;;;;;;3.30;1.60;;;;;;;;;;4824640;29;20042;-45
2022/08/14 15:41:29;;;;;;;3.47;1.65;;;;;;;;;;4824433;29;20050;-44
2022/08/14 15:44:11;;;;;;;4.43;1.80;;;;;;;;;;4824215;29;20077;-44
2022/08/14 15:46:58;;;;;;;3.40;1.45;;;;;;;;;;4824257;29;20053;-43
2022/08/14 15:49:27;;;;;;;2.42;1.42;;;;;;;;;;4823742;29;20524;-47
2022/08/14 15:52:02;;;;;;;2.25;1.55;;;;;;;;;;4824368;29;20050;-46
2022/08/14 15:54:30;;;;;;;3.03;1.95;;;;;;;;;;4823987;29;20046;-44
2022/08/14 15:56:59;;;;;;;2.05;1.63;;;;;;;;;;4824191;29;20046;-45
2022/08/14 16:01:18;;;;;;;3.10;2.10;;;;;;;;;;4824137;29;20419;-44